Time;durP1;ratioP1;P1;durP2;ratioP2;P2;SDS_P1;SDS_P2;PMS_P1;PMS_P2;Temp;Humidity;BMP_temperature;BMP_pressure;BME280_temperature;BME280_humidity;BME280_pressure;Samples;Min_cycle;Max_cycle;Signal;HPM_P1;HPM_P2
2022/03/19 08:50:34;;;;;;;;;;;435.40;1177.60;;;;;;6240335;22;20340;-89
2022/03/19 08:52:59;;;;;;;;;;;487.20;972.80;;;;;;6219523;23;19910;-89
2022/03/19 08:55:25;;;;;;;;;;;512.90;921.60;;;;;;6220340;23;19907;-88
2022/03/19 08:57:51;;;;;;;;;;;563.60;896.00;;;;;;6220472;23;19922;-89
2022/03/19 09:00:17;;;;;;;;;;;588.90;870.40;;;;;;6220500;23;19926;-86
2022/03/19 09:02:42;;;;;;;;;;;614.40;844.80;;;;;;6220466;23;19907;-86
2022/03/19 09:05:08;;;;;;;;;;;615.10;768.00;;;;;;6247460;23;19907;-85
2022/03/19 09:07:34;;;;;;;;;;;640.00;742.40;;;;;;6220477;23;19900;-87
2022/03/19 09:10:00;;;;;;;;;;;640.60;742.40;;;;;;6219663;23;19907;-84
2022/03/19 09:12:26;;;;;;;;;;;640.70;742.40;;;;;;6220347;23;20309;-84
2022/03/19 09:14:53;;;;;;;;;;;666.00;768.00;;;;;;6220154;23;19899;-86
2022/03/19 09:17:19;;;;;;;;;;;691.50;716.80;;;;;;6246508;23;19899;-85
2022/03/19 09:19:45;;;;;;;;;;;716.90;716.80;;;;;;6218671;23;19899;-86
2022/03/19 09:22:11;;;;;;;;;;;717.30;691.20;;;;;;6221848;23;19900;-85
2022/03/19 09:24:36;;;;;;;;;;;717.00;691.20;;;;;;6248431;23;20242;-85
2022/03/19 09:27:03;;;;;;;;;;;742.50;768.00;;;;;;6222201;23;20324;-86
2022/03/19 09:29:28;;;;;;;;;;;743.10;691.20;;;;;;6221757;23;19946;-84
2022/03/19 09:31:54;;;;;;;;;;;768.40;614.40;;;;;;6248582;23;19899;-84
2022/03/19 09:34:20;;;;;;;;;;;793.70;640.00;;;;;;6221685;23;19915;-85
2022/03/19 09:36:46;;;;;;;;;;;793.80;588.80;;;;;;6221894;23;19906;-85
2022/03/19 09:39:13;;;;;;;;;;;794.00;588.80;;;;;;6222091;23;20233;-85
2022/03/19 09:41:40;;;;;;;;;;;793.70;563.20;;;;;;6221843;23;19904;-85
2022/03/19 09:44:06;;;;;;;;;;;819.40;537.60;;;;;;6221469;23;19904;-86
2022/03/19 09:46:31;;;;;;;;;;;820.00;512.00;;;;;;6221964;23;19934;-85
2022/03/19 09:48:57;;;;;;;;;;;845.30;563.20;;;;;;6221828;23;19911;-86
2022/03/19 09:51:25;;;;;;;;;;;845.50;537.60;;;;;;6192331;23;19923;-85
2022/03/19 09:53:50;;;;;;;;;;;870.90;486.40;;;;;;6191325;23;19900;-86
2022/03/19 09:56:16;;;;;;;;;;;845.60;512.00;;;;;;6191132;23;19927;-85
2022/03/19 09:58:42;;;;;;;;;;;871.10;486.40;;;;;;6191679;23;20224;-86
2022/03/19 10:01:07;;;;;;;;;;;896.10;486.40;;;;;;6191625;23;19899;-86
2022/03/19 10:03:38;;;;;;;;;;;896.60;460.80;;;;;;6191466;23;19900;-83
2022/03/19 10:08:57;;;;;;;;;;;870.80;512.00;;;;;;6218265;23;19950;-88
2022/03/19 10:11:27;;;;;;;;;;;845.70;512.00;;;;;;6218114;23;19900;-89
2022/03/19 10:13:52;;;;;;;;;;;717.50;588.80;;;;;;6218004;23;19927;-88
2022/03/19 10:16:24;;;;;;;;;;;640.00;665.60;;;;;;6217001;23;19900;-89
2022/03/19 10:18:54;;;;;;;;;;;563.30;742.40;;;;;;6191462;23;19927;-90
2022/03/19 10:21:19;;;;;;;;;;;512.00;819.20;;;;;;6191633;23;19900;-89
2022/03/19 10:23:45;;;;;;;;;;;461.60;1228.80;;;;;;6191906;23;19947;-91
2022/03/19 10:26:23;;;;;;;;;;;461.20;921.60;;;;;;6191829;23;20225;-90
2022/03/19 10:29:06;;;;;;;;;;;435.60;947.20;;;;;;6216919;23;19908;-92
2022/03/19 10:31:35;;;;;;;;;;;410.10;998.40;;;;;;6191727;23;19914;-92
2022/03/19 10:34:02;;;;;;;;;;;410.30;998.40;;;;;;6191471;23;19899;-94
2022/03/19 10:36:32;;;;;;;;;;;409.90;1024.00;;;;;;6191761;23;19935;-93
2022/03/19 10:38:58;;;;;;;;;;;409.90;1024.00;;;;;;6191537;23;19900;-92
2022/03/19 10:41:24;;;;;;;;;;;410.00;1024.00;;;;;;6191726;23;19900;-93
2022/03/19 10:43:50;;;;;;;;;;;410.50;998.40;;;;;;6191573;23;19907;-90
2022/03/19 10:46:19;;;;;;;;;;;435.20;972.80;;;;;;6191495;23;19937;-92
2022/03/19 10:48:49;;;;;;;;;;;410.40;972.80;;;;;;6191396;23;19908;-91
2022/03/19 10:51:15;;;;;;;;;;;410.30;1024.00;;;;;;6219279;23;19943;-91
2022/03/19 10:53:41;;;;;;;;;;;410.50;998.40;;;;;;6221745;23;19911;-90
2022/03/19 10:56:07;;;;;;;;;;;435.60;1024.00;;;;;;6221817;23;19903;-91
2022/03/19 10:58:33;;;;;;;;;;;435.90;870.40;;;;;;6221761;23;19978;-90
2022/03/19 11:01:01;;;;;;;;;;;435.90;921.60;;;;;;6221726;23;19899;-91
2022/03/19 11:03:28;;;;;;;;;;;435.40;947.20;;;;;;6221607;23;19903;-91
2022/03/19 11:05:56;;;;;;;;;;;410.40;947.20;;;;;;6221570;23;20335;-91
2022/03/19 11:08:23;;;;;;;;;;;410.20;972.80;;;;;;6221460;23;19908;-92
2022/03/19 11:10:49;;;;;;;;;;;435.40;896.00;;;;;;6221564;23;19903;-91
2022/03/19 11:13:20;;;;;;;;;;;435.90;896.00;;;;;;6221293;23;19906;-92
2022/03/19 11:15:49;;;;;;;;;;;435.80;896.00;;;;;;6221829;23;19899;-91
2022/03/19 11:18:18;;;;;;;;;;;436.00;896.00;;;;;;6221928;23;19900;-90
2022/03/19 11:20:44;;;;;;;;;;;435.90;896.00;;;;;;6221628;23;19907;-91
2022/03/19 11:23:10;;;;;;;;;;;435.70;870.40;;;;;;6221479;23;19906;-91
2022/03/19 11:25:48;;;;;;;;;;;435.50;870.40;;;;;;6221354;23;19900;-92
2022/03/19 11:28:15;;;;;;;;;;;435.70;844.80;;;;;;6221214;23;20309;-93
2022/03/19 11:30:42;;;;;;;;;;;435.40;844.80;;;;;;6221413;23;19939;-93
2022/03/19 11:33:09;;;;;;;;;;;435.40;844.80;;;;;;6221272;23;19904;-91
2022/03/19 11:35:39;;;;;;;;;;;435.60;844.80;;;;;;6221650;23;19900;-92
2022/03/19 11:38:06;;;;;;;;;;;435.60;870.40;;;;;;6220984;23;19899;-92
2022/03/19 11:40:33;;;;;;;;;;;435.80;870.40;;;;;;6220948;23;19927;-92
2022/03/19 11:43:01;;;;;;;;;;;435.90;870.40;;;;;;6221107;23;19970;-92
2022/03/19 11:45:26;;;;;;;;;;;435.80;819.20;;;;;;6221093;23;19900;-92
2022/03/19 11:47:52;;;;;;;;;;;435.30;870.40;;;;;;6221011;23;19899;-92
2022/03/19 11:50:23;;;;;;;;;;;435.40;921.60;;;;;;6220712;23;19911;-93
2022/03/19 11:52:49;;;;;;;;;;;435.20;870.40;;;;;;6221196;23;19907;-93
2022/03/19 11:55:18;;;;;;;;;;;410.50;870.40;;;;;;6221053;23;20236;-93
2022/03/19 11:58:03;;;;;;;;;;;435.50;896.00;;;;;;6221099;23;19907;-93
2022/03/19 12:00:30;;;;;;;;;;;435.90;844.80;;;;;;6221276;23;19994;-91
2022/03/19 12:03:02;;;;;;;;;;;436.00;844.80;;;;;;6221126;23;19899;-92
2022/03/19 12:05:28;;;;;;;;;;;435.70;870.40;;;;;;6221082;23;20049;-91
2022/03/19 12:08:03;;;;;;;;;;;435.40;870.40;;;;;;6220282;23;20232;-91
2022/03/19 12:10:36;;;;;;;;;;;410.50;921.60;;;;;;6220316;23;19907;-90
2022/03/19 12:13:20;;;;;;;;;;;410.40;896.00;;;;;;6220476;23;19950;-91
2022/03/19 12:15:46;;;;;;;;;;;410.20;921.60;;;;;;6221072;23;19904;-91
2022/03/19 12:18:28;;;;;;;;;;;410.50;947.20;;;;;;6220833;23;19935;-92
2022/03/19 12:21:14;;;;;;;;;;;435.40;921.60;;;;;;6221105;23;19899;-91
2022/03/19 12:23:40;;;;;;;;;;;436.10;870.40;;;;;;6245188;23;19900;-92
2022/03/19 12:26:08;;;;;;;;;;;435.80;870.40;;;;;;6221020;23;19900;-92
2022/03/19 12:28:34;;;;;;;;;;;435.40;896.00;;;;;;6220840;23;19934;-92
2022/03/19 12:31:07;;;;;;;;;;;435.20;870.40;;;;;;6221272;23;19900;-91
2022/03/19 12:33:34;;;;;;;;;;;410.50;870.40;;;;;;6221001;23;19974;-91
2022/03/19 12:36:10;;;;;;;;;;;410.30;896.00;;;;;;6221284;23;19899;-91
2022/03/19 12:38:36;;;;;;;;;;;410.00;896.00;;;;;;6220486;23;19910;-91
2022/03/19 12:43:46;;;;;;;;;;;410.00;921.60;;;;;;6247599;23;20332;-91
2022/03/19 12:46:20;;;;;;;;;;;410.10;870.40;;;;;;6220051;23;19899;-90
2022/03/19 12:48:46;;;;;;;;;;;409.80;896.00;;;;;;6220932;23;20217;-91
2022/03/19 12:51:12;;;;;;;;;;;;;;;;;;6220736;23;19950;-91
2022/03/19 12:53:38;;;;;;;;;;;;;;;;;;6221029;23;20317;-92
2022/03/19 12:56:10;;;;;;;;;;;435.40;844.80;;;;;;6221965;23;20288;-92
2022/03/19 12:58:36;;;;;;;;;;;537.80;768.00;;;;;;6222244;23;19965;-93
2022/03/19 13:01:02;;;;;;;;;;;614.50;665.60;;;;;;6222846;23;19921;-90
2022/03/19 13:03:28;;;;;;;;;;;717.10;537.60;;;;;;6222961;23;19900;-89
2022/03/19 13:05:54;;;;;;;;;;;768.60;486.40;;;;;;6222317;23;19907;-89
2022/03/19 13:08:20;;;;;;;;;;;615.30;588.80;;;;;;6222566;23;19910;-89
2022/03/19 13:10:46;;;;;;;;;;;563.30;691.20;;;;;;6222780;23;19982;-92
2022/03/19 13:13:12;;;;;;;;;;;487.20;691.20;;;;;;6222297;23;19903;-90
2022/03/19 13:15:48;;;;;;;;;;;461.00;793.60;;;;;;6222211;23;19910;-90
2022/03/19 13:18:25;;;;;;;;;;;435.90;819.20;;;;;;6222059;23;19900;-89
2022/03/19 13:21:11;;;;;;;;;;;537.80;716.80;;;;;;6222361;23;19906;-90
2022/03/19 13:23:38;;;;;;;;;;;537.80;742.40;;;;;;6246681;23;19903;-89
2022/03/19 13:26:04;;;;;;;;;;;768.00;537.60;;;;;;6222411;23;19899;-86
2022/03/19 13:28:29;;;;;;;;;;;870.90;435.20;;;;;;6222244;23;19915;-87
2022/03/19 13:30:56;;;;;;;;;;;948.00;384.00;;;;;;6222289;23;19906;-84
2022/03/19 13:33:22;;;;;;;;;;;998.70;384.00;;;;;;6221822;23;20305;-84
2022/03/19 13:35:48;;;;;;;;;;;1024.80;358.40;;;;;;6221936;23;19942;-84
2022/03/19 13:38:15;;;;;;;;;;;1024.80;332.80;;;;;;6248570;23;19899;-83
2022/03/19 13:40:42;;;;;;;;;;;1050.50;358.40;;;;;;6248581;23;19952;-84
2022/03/19 13:43:08;;;;;;;;;;;1075.50;358.40;;;;;;6221935;23;19941;-84
2022/03/19 13:45:33;;;;;;;;;;;1075.50;358.40;;;;;;6248326;23;20225;-84
2022/03/19 13:48:06;;;;;;;;;;;1075.70;358.40;;;;;;6220239;23;19907;-83
2022/03/19 13:50:41;;;;;;;;;;;998.90;332.80;;;;;;6220715;23;19943;-84
2022/03/19 13:53:07;;;;;;;;;;;973.60;332.80;;;;;;6248042;23;19949;-85
2022/03/19 13:55:34;;;;;;;;;;;999.30;332.80;;;;;;6248018;23;19946;-84
2022/03/19 13:58:01;;;;;;;;;;;1049.60;358.40;;;;;;6248092;23;19899;-84
2022/03/19 14:00:31;;;;;;;;;;;1050.20;358.40;;;;;;6248207;23;20013;-83
2022/03/19 14:03:04;;;;;;;;;;;1050.30;358.40;;;;;;6247970;23;19900;-83
2022/03/19 14:05:31;;;;;;;;;;;1050.10;358.40;;;;;;6221207;23;20305;-86
2022/03/19 14:07:58;;;;;;;;;;;1050.20;358.40;;;;;;6220670;23;20352;-83
2022/03/19 14:10:32;;;;;;;;;;;896.20;332.80;;;;;;6221213;23;19908;-84
2022/03/19 14:13:08;;;;;;;;;;;947.90;307.20;;;;;;6221352;23;19899;-83
2022/03/19 14:15:39;;;;;;;;;;;819.20;409.60;;;;;;6221246;23;19899;-83
2022/03/19 14:18:05;;;;;;;;;;;716.80;460.80;;;;;;6221226;23;19903;-83
2022/03/19 14:20:30;;;;;;;;;;;640.00;486.40;;;;;;6247903;23;20336;-86
2022/03/19 14:22:56;;;;;;;;;;;589.20;563.20;;;;;;6247642;23;19974;-85
2022/03/19 14:25:22;;;;;;;;;;;563.60;588.80;;;;;;6221263;23;19900;-85
2022/03/19 14:27:48;;;;;;;;;;;538.10;588.80;;;;;;6221588;23;19914;-94
2022/03/19 14:30:14;;;;;;;;;;;512.80;614.40;;;;;;6248402;23;19907;-94
2022/03/19 14:32:40;;;;;;;;;;;512.30;614.40;;;;;;6248015;23;19942;-94
2022/03/19 14:35:34;;;;;;;;;;;487.20;640.00;;;;;;6221735;23;19900;-94
2022/03/19 14:37:59;;;;;;;;;;;486.70;665.60;;;;;;6225233;23;20232;-95
2022/03/19 14:40:25;;;;;;;;;;;;;;;;;;6226153;23;19904;-93
2022/03/19 14:42:51;;;;;;;;;;;486.40;691.20;;;;;;6252684;23;19907;-94
2022/03/19 14:45:17;;;;;;;;;;;461.60;691.20;;;;;;6228447;23;19904;-92
2022/03/19 14:47:44;;;;;;;;;;;461.40;665.60;;;;;;6226346;23;19941;-86
2022/03/19 14:50:11;;;;;;;;;;;461.20;665.60;;;;;;6228207;23;20333;-86
2022/03/19 14:52:37;;;;;;;;;;;;;;;;;;6224735;23;19946;-87
2022/03/19 14:55:03;;;;;;;;;;;436.10;665.60;;;;;;6229992;23;20206;-87
2022/03/19 14:57:30;;;;;;;;;;;436.10;665.60;;;;;;6230626;23;19899;-86
2022/03/19 14:59:56;;;;;;;;;;;435.90;665.60;;;;;;6230899;23;20324;-87
2022/03/19 15:02:22;;;;;;;;;;;;;;;;;;6230290;23;19943;-88
2022/03/19 15:04:48;;;;;;;;;;;;;;;;;;6254742;23;19962;-92
2022/03/19 15:07:14;;;;;;;;;;;435.80;691.20;;;;;;6225170;23;19900;-87
2022/03/19 15:09:40;;;;;;;;;;;;;;;;;;6252887;23;19908;-93
2022/03/19 15:12:07;;;;;;;;;;;435.30;742.40;;;;;;6224648;23;19899;-89
2022/03/19 15:14:34;;;;;;;;;;;435.20;716.80;;;;;;6224563;23;19899;-94
2022/03/19 15:17:03;;;;;;;;;;;435.20;742.40;;;;;;6224127;23;19899;-91
2022/03/19 15:19:28;;;;;;;;;;;410.40;742.40;;;;;;6225578;23;19903;-89
2022/03/19 15:22:02;;;;;;;;;;;410.30;742.40;;;;;;6252893;23;20276;-90
2022/03/19 15:24:28;;;;;;;;;;;410.00;742.40;;;;;;6225078;23;19900;-93
2022/03/19 15:26:54;;;;;;;;;;;409.70;768.00;;;;;;6226674;23;19907;-90
2022/03/19 15:29:20;;;;;;;;;;;384.60;742.40;;;;;;6253844;23;19907;-89
2022/03/19 15:31:48;;;;;;;;;;;384.30;768.00;;;;;;6246283;23;19904;-90
2022/03/19 15:34:13;;;;;;;;;;;384.00;793.60;;;;;;6227033;23;19910;-90
2022/03/19 15:36:43;;;;;;;;;;;359.10;793.60;;;;;;6255384;23;19899;-90
2022/03/19 15:39:11;;;;;;;;;;;359.10;793.60;;;;;;6258891;23;19922;-91
2022/03/19 15:41:41;;;;;;;;;;;358.90;793.60;;;;;;6232191;23;20086;-90
2022/03/19 15:44:07;;;;;;;;;;;358.90;793.60;;;;;;6227727;23;19907;-89
2022/03/19 15:46:33;;;;;;;;;;;358.70;793.60;;;;;;6227494;23;19947;-90
2022/03/19 15:49:20;;;;;;;;;;;358.60;819.20;;;;;;6250164;23;19935;-92
2022/03/19 15:51:47;;;;;;;;;;;358.60;819.20;;;;;;6229192;23;19919;-92
2022/03/19 15:54:12;;;;;;;;;;;358.50;844.80;;;;;;6228362;23;19927;-92
2022/03/19 15:56:38;;;;;;;;;;;358.50;819.20;;;;;;6204395;23;19904;-91
2022/03/19 15:59:05;;;;;;;;;;;358.40;819.20;;;;;;6254987;23;19938;-92
2022/03/19 16:01:30;;;;;;;;;;;333.70;819.20;;;;;;6225488;23;19927;-92
2022/03/19 16:03:56;;;;;;;;;;;;;;;;;;6221805;23;19915;-86
2022/03/19 16:06:23;;;;;;;;;;;358.40;844.80;;;;;;6220626;23;19900;-88
2022/03/19 16:11:39;;;;;;;;;;;;;;;;;;6252276;23;19911;-86
2022/03/19 16:14:05;;;;;;;;;;;;;;;;;;6223480;23;19919;-86
